sensor_id;sensor_type;location;lat;lon;timestamp;pressure;altitude;pressure_sealevel;temperature;humidity
52032;BME280;38044;45.148;39.604;2023-04-03T00:01:13;100439.66;;;7.56;63.74
52032;BME280;38044;45.148;39.604;2023-04-03T00:03:40;100459.09;;;7.72;63.65
52032;BME280;38044;45.148;39.604;2023-04-03T00:06:10;100617.50;;;8.64;64.21
52032;BME280;38044;45.148;39.604;2023-04-03T00:08:37;100595.31;;;8.53;63.86
52032;BME280;38044;45.148;39.604;2023-04-03T00:11:05;100636.28;;;8.59;64.21
52032;BME280;38044;45.148;39.604;2023-04-03T00:13:31;100494.66;;;7.77;64.20
52032;BME280;38044;45.148;39.604;2023-04-03T00:15:57;100615.94;;;8.53;64.27
52032;BME280;38044;45.148;39.604;2023-04-03T00:18:24;100614.31;;;8.57;64.72
52032;BME280;38044;45.148;39.604;2023-04-03T00:20:49;100538.13;;;8.19;64.68
52032;BME280;38044;45.148;39.604;2023-04-03T00:23:15;100399.56;;;7.40;64.78
52032;BME280;38044;45.148;39.604;2023-04-03T00:25:41;100566.13;;;8.47;65.20
52032;BME280;38044;45.148;39.604;2023-04-03T00:28:08;100602.72;;;8.67;64.61
52032;BME280;38044;45.148;39.604;2023-04-03T00:30:34;100564.53;;;8.46;64.74
52032;BME280;38044;45.148;39.604;2023-04-03T00:33:00;100586.97;;;8.55;65.17
52032;BME280;38044;45.148;39.604;2023-04-03T00:35:27;100452.94;;;7.71;65.02
52032;BME280;38044;45.148;39.604;2023-04-03T00:37:54;100609.38;;;8.74;65.07
52032;BME280;38044;45.148;39.604;2023-04-03T00:40:23;100393.13;;;7.47;65.12
52032;BME280;38044;45.148;39.604;2023-04-03T00:42:51;100384.03;;;7.48;65.39
52032;BME280;38044;45.148;39.604;2023-04-03T00:45:33;100569.50;;;8.68;65.44
52032;BME280;38044;45.148;39.604;2023-04-03T00:48:00;100597.53;;;8.86;65.16
52032;BME280;38044;45.148;39.604;2023-04-03T00:50:29;100561.50;;;8.63;65.03
52032;BME280;38044;45.148;39.604;2023-04-03T00:52:56;100608.22;;;8.91;64.96
52032;BME280;38044;45.148;39.604;2023-04-03T00:55:23;100610.81;;;9.01;64.58
52032;BME280;38044;45.148;39.604;2023-04-03T00:57:49;100458.41;;;8.05;64.75
52032;BME280;38044;45.148;39.604;2023-04-03T01:00:17;100588.91;;;8.94;64.81
52032;BME280;38044;45.148;39.604;2023-04-03T01:02:44;100411.13;;;7.90;64.64
52032;BME280;38044;45.148;39.604;2023-04-03T01:05:11;100585.44;;;8.93;64.85
52032;BME280;38044;45.148;39.604;2023-04-03T01:07:37;100599.00;;;9.07;64.82
52032;BME280;38044;45.148;39.604;2023-04-03T01:10:09;100551.56;;;8.63;65.32
52032;BME280;38044;45.148;39.604;2023-04-03T01:12:37;100583.13;;;8.76;65.56
52032;BME280;38044;45.148;39.604;2023-04-03T01:15:13;100577.22;;;8.74;66.57
52032;BME280;38044;45.148;39.604;2023-04-03T01:17:50;100609.28;;;8.90;66.90
52032;BME280;38044;45.148;39.604;2023-04-03T01:25:47;100586.34;;;8.78;67.97
52032;BME280;38044;45.148;39.604;2023-04-03T01:28:21;100592.50;;;8.79;68.03
52032;BME280;38044;45.148;39.604;2023-04-03T01:33:50;100589.72;;;8.89;67.33
52032;BME280;38044;45.148;39.604;2023-04-03T01:36:23;100591.63;;;8.89;67.40
52032;BME280;38044;45.148;39.604;2023-04-03T01:38:50;100579.84;;;8.85;67.23
52032;BME280;38044;45.148;39.604;2023-04-03T01:41:16;100579.56;;;8.86;67.60
52032;BME280;38044;45.148;39.604;2023-04-03T01:43:42;100579.59;;;8.81;67.78
52032;BME280;38044;45.148;39.604;2023-04-03T01:46:08;100542.22;;;8.61;67.16
52032;BME280;38044;45.148;39.604;2023-04-03T01:48:34;100531.25;;;8.57;66.72
52032;BME280;38044;45.148;39.604;2023-04-03T01:51:00;100595.19;;;9.13;66.54
52032;BME280;38044;45.148;39.604;2023-04-03T01:53:26;100455.28;;;8.32;66.58
52032;BME280;38044;45.148;39.604;2023-04-03T01:55:52;100537.53;;;8.82;66.04
52032;BME280;38044;45.148;39.604;2023-04-03T01:58:18;100596.09;;;9.33;65.93
52032;BME280;38044;45.148;39.604;2023-04-03T02:00:43;100598.78;;;9.33;65.75
52032;BME280;38044;45.148;39.604;2023-04-03T02:03:09;100410.38;;;8.24;65.40
52032;BME280;38044;45.148;39.604;2023-04-03T02:05:35;100484.56;;;8.68;65.46
52032;BME280;38044;45.148;39.604;2023-04-03T02:08:01;100620.72;;;9.40;66.18
52032;BME280;38044;45.148;39.604;2023-04-03T02:10:26;100574.50;;;9.19;66.55
52032;BME280;38044;45.148;39.604;2023-04-03T02:12:52;100572.66;;;9.14;66.57
52032;BME280;38044;45.148;39.604;2023-04-03T02:15:18;100612.16;;;9.38;66.37
52032;BME280;38044;45.148;39.604;2023-04-03T02:17:44;100638.91;;;9.48;67.24
52032;BME280;38044;45.148;39.604;2023-04-03T02:20:10;100621.72;;;9.49;67.20
52032;BME280;38044;45.148;39.604;2023-04-03T02:22:36;100460.84;;;8.46;67.35
52032;BME280;38044;45.148;39.604;2023-04-03T02:25:02;100603.66;;;9.31;67.98
52032;BME280;38044;45.148;39.604;2023-04-03T02:27:28;100452.13;;;8.25;68.70
52032;BME280;38044;45.148;39.604;2023-04-03T02:29:54;100608.63;;;9.13;68.81
52032;BME280;38044;45.148;39.604;2023-04-03T02:32:19;100588.41;;;8.87;70.40
52032;BME280;38044;45.148;39.604;2023-04-03T02:34:45;100521.13;;;8.49;70.91
52032;BME280;38044;45.148;39.604;2023-04-03T02:37:11;100591.28;;;8.95;71.28
52032;BME280;38044;45.148;39.604;2023-04-03T02:39:37;100621.47;;;9.16;70.45
52032;BME280;38044;45.148;39.604;2023-04-03T02:42:03;100606.53;;;9.05;70.68
52032;BME280;38044;45.148;39.604;2023-04-03T02:44:29;100594.78;;;8.96;71.12
52032;BME280;38044;45.148;39.604;2023-04-03T02:46:55;100515.31;;;8.26;71.88
52032;BME280;38044;45.148;39.604;2023-04-03T02:49:20;100623.16;;;9.02;72.98
52032;BME280;38044;45.148;39.604;2023-04-03T02:51:46;100617.28;;;9.00;72.81
52032;BME280;38044;45.148;39.604;2023-04-03T02:54:13;100608.41;;;9.05;73.05
52032;BME280;38044;45.148;39.604;2023-04-03T02:56:39;100593.69;;;8.97;73.12
52032;BME280;38044;45.148;39.604;2023-04-03T02:59:05;100611.44;;;8.93;73.78
52032;BME280;38044;45.148;39.604;2023-04-03T03:01:31;100625.88;;;8.97;75.10
52032;BME280;38044;45.148;39.604;2023-04-03T03:03:59;100608.75;;;8.93;74.51
52032;BME280;38044;45.148;39.604;2023-04-03T03:06:25;100583.66;;;8.78;74.14
52032;BME280;38044;45.148;39.604;2023-04-03T03:08:51;100603.31;;;9.03;74.04
52032;BME280;38044;45.148;39.604;2023-04-03T03:11:17;100636.22;;;9.14;74.08
52032;BME280;38044;45.148;39.604;2023-04-03T03:13:42;100565.75;;;8.69;74.57
52032;BME280;38044;45.148;39.604;2023-04-03T03:16:08;100629.00;;;9.09;75.10
52032;BME280;38044;45.148;39.604;2023-04-03T03:18:35;100620.38;;;9.17;75.07
52032;BME280;38044;45.148;39.604;2023-04-03T03:21:02;100638.00;;;9.29;76.06
52032;BME280;38044;45.148;39.604;2023-04-03T03:23:29;100553.59;;;8.82;76.27
52032;BME280;38044;45.148;39.604;2023-04-03T03:25:59;100640.53;;;9.44;76.14
52032;BME280;38044;45.148;39.604;2023-04-03T03:28:25;100582.91;;;9.07;75.63
52032;BME280;38044;45.148;39.604;2023-04-03T03:30:51;100515.06;;;8.72;75.04
52032;BME280;38044;45.148;39.604;2023-04-03T03:33:18;100654.50;;;9.46;75.61
52032;BME280;38044;45.148;39.604;2023-04-03T03:35:44;100492.25;;;8.35;76.36
52032;BME280;38044;45.148;39.604;2023-04-03T03:38:10;100656.31;;;9.56;76.84
52032;BME280;38044;45.148;39.604;2023-04-03T03:40:36;100654.91;;;9.58;76.69
52032;BME280;38044;45.148;39.604;2023-04-03T03:43:02;100667.72;;;9.66;77.19
52032;BME280;38044;45.148;39.604;2023-04-03T03:45:28;100646.28;;;9.61;77.28
52032;BME280;38044;45.148;39.604;2023-04-03T03:47:54;100572.72;;;9.04;77.47
52032;BME280;38044;45.148;39.604;2023-04-03T03:50:20;100690.69;;;9.83;77.41
52032;BME280;38044;45.148;39.604;2023-04-03T03:52:46;100680.09;;;9.97;77.78
52032;BME280;38044;45.148;39.604;2023-04-03T03:55:11;100673.00;;;10.06;77.69
52032;BME280;38044;45.148;39.604;2023-04-03T03:57:37;100548.75;;;9.47;77.49
52032;BME280;38044;45.148;39.604;2023-04-03T04:00:04;100639.72;;;10.31;77.31
52032;BME280;38044;45.148;39.604;2023-04-03T04:02:30;100508.34;;;9.62;77.23
52032;BME280;38044;45.148;39.604;2023-04-03T04:04:56;100603.44;;;10.33;77.19
52032;BME280;38044;45.148;39.604;2023-04-03T04:07:22;100549.25;;;10.02;77.04
52032;BME280;38044;45.148;39.604;2023-04-03T04:09:48;100646.19;;;10.73;76.59
52032;BME280;38044;45.148;39.604;2023-04-03T04:12:14;100491.78;;;9.79;75.99
52032;BME280;38044;45.148;39.604;2023-04-03T04:14:40;100537.34;;;10.08;74.39
52032;BME280;38044;45.148;39.604;2023-04-03T04:17:05;100637.69;;;10.66;74.48
52032;BME280;38044;45.148;39.604;2023-04-03T04:19:31;100588.19;;;10.24;74.66
52032;BME280;38044;45.148;39.604;2023-04-03T04:21:58;100650.53;;;10.69;74.05
52032;BME280;38044;45.148;39.604;2023-04-03T04:24:24;100501.38;;;9.61;74.36
52032;BME280;38044;45.148;39.604;2023-04-03T04:26:50;100662.97;;;10.65;74.79
52032;BME280;38044;45.148;39.604;2023-04-03T04:29:16;100687.06;;;10.94;74.60
52032;BME280;38044;45.148;39.604;2023-04-03T04:31:42;100533.13;;;10.02;74.51
52032;BME280;38044;45.148;39.604;2023-04-03T04:34:08;100502.50;;;10.03;74.49
52032;BME280;38044;45.148;39.604;2023-04-03T04:36:33;100663.06;;;11.16;74.28
52032;BME280;38044;45.148;39.604;2023-04-03T04:38:59;100533.84;;;10.32;74.36
52032;BME280;38044;45.148;39.604;2023-04-03T04:41:25;100529.56;;;10.31;74.16
52032;BME280;38044;45.148;39.604;2023-04-03T04:43:51;100621.91;;;10.78;74.47
52032;BME280;38044;45.148;39.604;2023-04-03T04:46:18;100661.75;;;11.14;74.46
52032;BME280;38044;45.148;39.604;2023-04-03T04:48:44;100651.06;;;11.09;74.34
52032;BME280;38044;45.148;39.604;2023-04-03T04:51:10;100682.47;;;11.32;74.09
52032;BME280;38044;45.148;39.604;2023-04-03T04:53:37;100651.06;;;11.09;74.40
52032;BME280;38044;45.148;39.604;2023-04-03T04:56:03;100570.75;;;10.64;74.18
52032;BME280;38044;45.148;39.604;2023-04-03T04:58:29;100630.50;;;10.99;74.44
52032;BME280;38044;45.148;39.604;2023-04-03T05:01:06;100470.13;;;10.13;75.25
52032;BME280;38044;45.148;39.604;2023-04-03T05:03:33;100656.13;;;11.29;75.16
52032;BME280;38044;45.148;39.604;2023-04-03T05:05:59;100658.97;;;11.38;75.09
52032;BME280;38044;45.148;39.604;2023-04-03T05:08:25;100577.84;;;10.93;74.45
52032;BME280;38044;45.148;39.604;2023-04-03T05:10:51;100391.72;;;9.74;74.34
52032;BME280;38044;45.148;39.604;2023-04-03T05:13:18;100389.53;;;9.76;74.01
52032;BME280;38044;45.148;39.604;2023-04-03T05:15:45;100366.75;;;9.54;73.90
52032;BME280;38044;45.148;39.604;2023-04-03T05:18:12;100412.34;;;9.97;73.81
52032;BME280;38044;45.148;39.604;2023-04-03T05:20:38;100710.22;;;11.98;73.69
52032;BME280;38044;45.148;39.604;2023-04-03T05:23:05;100589.72;;;11.11;73.31
52032;BME280;38044;45.148;39.604;2023-04-03T05:25:31;100658.84;;;11.62;73.79
52032;BME280;38044;45.148;39.604;2023-04-03T05:27:56;100726.09;;;12.00;73.89
52032;BME280;38044;45.148;39.604;2023-04-03T05:30:22;100623.44;;;11.22;73.92
52032;BME280;38044;45.148;39.604;2023-04-03T05:32:48;100713.91;;;11.88;74.01
52032;BME280;38044;45.148;39.604;2023-04-03T05:35:14;100723.13;;;11.82;74.12
52032;BME280;38044;45.148;39.604;2023-04-03T05:37:40;100689.97;;;11.68;74.55
52032;BME280;38044;45.148;39.604;2023-04-03T05:40:07;100749.50;;;12.18;74.49
52032;BME280;38044;45.148;39.604;2023-04-03T05:42:40;100736.31;;;12.16;74.28
52032;BME280;38044;45.148;39.604;2023-04-03T05:45:06;100693.75;;;11.86;74.48
52032;BME280;38044;45.148;39.604;2023-04-03T05:47:32;100730.94;;;12.16;74.24
52032;BME280;38044;45.148;39.604;2023-04-03T05:49:57;100758.81;;;12.39;74.26
52032;BME280;38044;45.148;39.604;2023-04-03T05:52:28;100741.03;;;12.38;74.45
52032;BME280;38044;45.148;39.604;2023-04-03T05:54:54;100762.59;;;12.52;74.04
52032;BME280;38044;45.148;39.604;2023-04-03T05:57:20;100774.31;;;12.48;74.19
52032;BME280;38044;45.148;39.604;2023-04-03T05:59:47;100785.19;;;12.43;74.90
52032;BME280;38044;45.148;39.604;2023-04-03T06:02:18;100688.88;;;11.88;75.14
52032;BME280;38044;45.148;39.604;2023-04-03T06:04:44;100731.03;;;12.25;75.09
52032;BME280;38044;45.148;39.604;2023-04-03T06:07:15;100773.41;;;12.66;75.20
52032;BME280;38044;45.148;39.604;2023-04-03T06:09:42;100736.56;;;12.48;75.08
52032;BME280;38044;45.148;39.604;2023-04-03T06:12:08;100666.75;;;12.05;75.26
52032;BME280;38044;45.148;39.604;2023-04-03T06:14:34;100797.78;;;12.75;74.58
52032;BME280;38044;45.148;39.604;2023-04-03T06:17:00;100743.63;;;12.30;75.38
52032;BME280;38044;45.148;39.604;2023-04-03T06:19:27;100806.84;;;12.51;75.60
52032;BME280;38044;45.148;39.604;2023-04-03T06:21:53;100783.88;;;12.40;75.92
52032;BME280;38044;45.148;39.604;2023-04-03T06:24:20;100806.75;;;12.43;76.02
52032;BME280;38044;45.148;39.604;2023-04-03T06:26:48;100770.44;;;12.21;76.42
52032;BME280;38044;45.148;39.604;2023-04-03T06:29:15;100778.53;;;12.21;76.32
52032;BME280;38044;45.148;39.604;2023-04-03T06:31:41;100810.94;;;12.49;76.57
52032;BME280;38044;45.148;39.604;2023-04-03T06:34:07;100785.25;;;12.37;76.72
52032;BME280;38044;45.148;39.604;2023-04-03T06:36:33;100725.19;;;11.90;76.75
52032;BME280;38044;45.148;39.604;2023-04-03T06:39:00;100799.34;;;12.34;77.46
52032;BME280;38044;45.148;39.604;2023-04-03T06:41:26;100804.88;;;12.24;77.74
52032;BME280;38044;45.148;39.604;2023-04-03T06:43:52;100776.97;;;12.01;78.41
52032;BME280;38044;45.148;39.604;2023-04-03T06:46:21;100816.03;;;12.36;78.84
52032;BME280;38044;45.148;39.604;2023-04-03T06:48:48;100768.97;;;12.29;78.48
52032;BME280;38044;45.148;39.604;2023-04-03T06:51:22;100641.63;;;11.77;77.87
52032;BME280;38044;45.148;39.604;2023-04-03T06:53:49;100702.59;;;12.33;77.43
52032;BME280;38044;45.148;39.604;2023-04-03T06:56:15;100745.22;;;12.72;76.86
52032;BME280;38044;45.148;39.604;2023-04-03T06:58:42;100802.16;;;13.12;76.49
52032;BME280;38044;45.148;39.604;2023-04-03T07:01:10;100808.38;;;13.26;77.13
52032;BME280;38044;45.148;39.604;2023-04-03T07:03:38;100675.34;;;12.48;76.32
52032;BME280;38044;45.148;39.604;2023-04-03T07:06:04;100826.47;;;13.40;76.10
52032;BME280;38044;45.148;39.604;2023-04-03T07:08:31;100798.97;;;13.10;75.38
52032;BME280;38044;45.148;39.604;2023-04-03T07:10:57;100826.88;;;13.19;76.23
52032;BME280;38044;45.148;39.604;2023-04-03T07:13:23;100719.88;;;12.59;76.10
52032;BME280;38044;45.148;39.604;2023-04-03T07:15:49;100837.19;;;13.31;76.42
52032;BME280;38044;45.148;39.604;2023-04-03T07:18:15;100684.81;;;12.46;75.79
52032;BME280;38044;45.148;39.604;2023-04-03T07:20:42;100817.59;;;13.25;75.93
52032;BME280;38044;45.148;39.604;2023-04-03T07:23:09;100832.66;;;13.26;75.95
52032;BME280;38044;45.148;39.604;2023-04-03T07:25:36;100775.09;;;12.90;76.14
52032;BME280;38044;45.148;39.604;2023-04-03T07:28:01;100852.38;;;13.27;76.39
52032;BME280;38044;45.148;39.604;2023-04-03T07:30:29;100844.25;;;13.27;76.26
52032;BME280;38044;45.148;39.604;2023-04-03T07:32:55;100700.47;;;12.30;76.39
52032;BME280;38044;45.148;39.604;2023-04-03T07:35:21;100848.16;;;13.07;77.21
52032;BME280;38044;45.148;39.604;2023-04-03T07:37:47;100844.97;;;12.91;77.68
52032;BME280;38044;45.148;39.604;2023-04-03T07:40:13;100693.19;;;11.84;77.75
52032;BME280;38044;45.148;39.604;2023-04-03T07:42:39;100840.16;;;12.74;78.05
52032;BME280;38044;45.148;39.604;2023-04-03T07:45:05;100731.22;;;12.15;77.92
52032;BME280;38044;45.148;39.604;2023-04-03T07:47:31;100865.53;;;13.01;78.13
52032;BME280;38044;45.148;39.604;2023-04-03T07:49:57;100849.06;;;13.02;77.90
52032;BME280;38044;45.148;39.604;2023-04-03T07:52:23;100857.53;;;12.96;78.13
52032;BME280;38044;45.148;39.604;2023-04-03T07:54:49;100836.84;;;12.77;77.98
52032;BME280;38044;45.148;39.604;2023-04-03T07:57:15;100718.03;;;12.00;78.49
52032;BME280;38044;45.148;39.604;2023-04-03T07:59:41;100801.56;;;12.46;78.77
52032;BME280;38044;45.148;39.604;2023-04-03T08:02:11;100837.34;;;12.66;79.22
52032;BME280;38044;45.148;39.604;2023-04-03T08:04:37;100724.81;;;11.97;78.48
52032;BME280;38044;45.148;39.604;2023-04-03T08:07:03;100843.09;;;12.59;78.73
52032;BME280;38044;45.148;39.604;2023-04-03T08:09:29;100824.75;;;12.61;78.60
52032;BME280;38044;45.148;39.604;2023-04-03T08:11:55;100815.22;;;12.50;78.54
52032;BME280;38044;45.148;39.604;2023-04-03T08:14:21;100841.50;;;12.58;78.54
52032;BME280;38044;45.148;39.604;2023-04-03T08:16:47;100832.72;;;12.52;78.80
52032;BME280;38044;45.148;39.604;2023-04-03T08:19:15;100828.50;;;12.46;78.79
52032;BME280;38044;45.148;39.604;2023-04-03T08:21:42;100822.50;;;12.35;78.54
52032;BME280;38044;45.148;39.604;2023-04-03T08:24:08;100834.19;;;12.45;78.27
52032;BME280;38044;45.148;39.604;2023-04-03T08:26:34;100835.94;;;12.68;78.63
52032;BME280;38044;45.148;39.604;2023-04-03T08:29:00;100825.22;;;12.49;78.40
52032;BME280;38044;45.148;39.604;2023-04-03T08:31:26;100859.03;;;12.74;78.15
52032;BME280;38044;45.148;39.604;2023-04-03T08:33:53;100854.72;;;12.73;77.75
52032;BME280;38044;45.148;39.604;2023-04-03T08:36:24;100875.72;;;12.90;77.40
52032;BME280;38044;45.148;39.604;2023-04-03T08:38:51;100867.84;;;12.80;77.49
52032;BME280;38044;45.148;39.604;2023-04-03T08:41:33;100891.19;;;12.84;77.99
52032;BME280;38044;45.148;39.604;2023-04-03T08:44:04;100745.84;;;11.95;77.92
52032;BME280;38044;45.148;39.604;2023-04-03T08:46:47;100896.31;;;12.86;78.11
52032;BME280;38044;45.148;39.604;2023-04-03T08:49:31;100847.41;;;12.60;78.84
52032;BME280;38044;45.148;39.604;2023-04-03T08:52:00;100893.31;;;12.74;79.23
52032;BME280;38044;45.148;39.604;2023-04-03T08:54:32;100882.28;;;12.70;78.89
52032;BME280;38044;45.148;39.604;2023-04-03T08:57:00;100759.75;;;11.83;79.18
52032;BME280;38044;45.148;39.604;2023-04-03T08:59:33;100788.56;;;12.02;79.49
52032;BME280;38044;45.148;39.604;2023-04-03T09:02:04;100872.97;;;12.49;79.78
52032;BME280;38044;45.148;39.604;2023-04-03T09:04:32;100874.31;;;12.65;79.33
52032;BME280;38044;45.148;39.604;2023-04-03T09:07:07;100889.09;;;12.81;79.24
52032;BME280;38044;45.148;39.604;2023-04-03T09:09:36;100916.91;;;13.10;79.33
52032;BME280;38044;45.148;39.604;2023-04-03T09:14:58;100888.56;;;13.54;78.33
52032;BME280;38044;45.148;39.604;2023-04-03T09:23:09;100889.88;;;13.79;76.96
52032;BME280;38044;45.148;39.604;2023-04-03T09:25:39;100853.22;;;13.50;77.34
52032;BME280;38044;45.148;39.604;2023-04-03T09:28:05;100745.41;;;12.90;76.65
52032;BME280;38044;45.148;39.604;2023-04-03T09:30:35;100895.75;;;13.94;76.84
52032;BME280;38044;45.148;39.604;2023-04-03T09:33:02;100910.28;;;14.21;75.86
52032;BME280;38044;45.148;39.604;2023-04-03T09:35:36;100902.34;;;14.47;75.33
52032;BME280;38044;45.148;39.604;2023-04-03T09:40:42;100737.28;;;13.76;74.46
52032;BME280;38044;45.148;39.604;2023-04-03T09:43:30;100890.38;;;14.93;74.10
52032;BME280;38044;45.148;39.604;2023-04-03T09:46:16;100853.03;;;14.73;74.67
52032;BME280;38044;45.148;39.604;2023-04-03T09:48:55;100900.41;;;14.93;74.39
52032;BME280;38044;45.148;39.604;2023-04-03T09:51:25;100893.41;;;14.60;74.19
52032;BME280;38044;45.148;39.604;2023-04-03T09:53:52;100862.66;;;14.34;74.59
52032;BME280;38044;45.148;39.604;2023-04-03T09:56:20;100898.34;;;14.45;74.99
52032;BME280;38044;45.148;39.604;2023-04-03T10:01:27;100905.53;;;14.27;74.07
52032;BME280;38044;45.148;39.604;2023-04-03T10:04:13;100774.16;;;13.36;74.16
52032;BME280;38044;45.148;39.604;2023-04-03T10:06:47;100913.03;;;14.07;74.59
52032;BME280;38044;45.148;39.604;2023-04-03T10:09:23;100901.66;;;13.96;75.57
52032;BME280;38044;45.148;39.604;2023-04-03T10:12:06;100899.88;;;13.92;75.31
52032;BME280;38044;45.148;39.604;2023-04-03T10:17:37;100901.09;;;13.86;75.72
52032;BME280;38044;45.148;39.604;2023-04-03T10:20:27;100766.19;;;13.03;75.38
52032;BME280;38044;45.148;39.604;2023-04-03T10:23:17;100909.44;;;13.98;75.45
52032;BME280;38044;45.148;39.604;2023-04-03T10:26:06;100881.66;;;13.84;75.48
52032;BME280;38044;45.148;39.604;2023-04-03T10:31:49;100894.00;;;14.12;75.97
52032;BME280;38044;45.148;39.604;2023-04-03T10:34:23;100885.06;;;13.89;75.79
52032;BME280;38044;45.148;39.604;2023-04-03T10:39:59;100895.91;;;13.75;76.34
52032;BME280;38044;45.148;39.604;2023-04-03T10:43:36;100939.53;;;13.83;77.72
52032;BME280;38044;45.148;39.604;2023-04-03T10:53:26;100785.47;;;13.38;76.14
52032;BME280;38044;45.148;39.604;2023-04-03T11:01:35;100916.72;;;15.10;73.88
52032;BME280;38044;45.148;39.604;2023-04-03T11:04:04;100870.09;;;14.82;73.56
52032;BME280;38044;45.148;39.604;2023-04-03T11:07:06;100928.25;;;15.24;73.09
52032;BME280;38044;45.148;39.604;2023-04-03T11:09:35;100929.00;;;14.85;73.41
52032;BME280;38044;45.148;39.604;2023-04-03T11:12:17;100894.06;;;14.66;74.55
52032;BME280;38044;45.148;39.604;2023-04-03T11:14:47;100812.34;;;14.02;74.09
52032;BME280;38044;45.148;39.604;2023-04-03T11:20:06;100913.19;;;14.70;74.57
52032;BME280;38044;45.148;39.604;2023-04-03T11:22:39;100864.88;;;14.32;73.92
52032;BME280;38044;45.148;39.604;2023-04-03T11:25:15;100771.63;;;13.75;74.17
52032;BME280;38044;45.148;39.604;2023-04-03T11:28:01;100894.06;;;14.66;74.01
52032;BME280;38044;45.148;39.604;2023-04-03T11:30:38;100899.94;;;14.99;73.02
52032;BME280;38044;45.148;39.604;2023-04-03T11:36:03;100858.34;;;14.86;72.88
52032;BME280;38044;45.148;39.604;2023-04-03T11:38:42;100890.63;;;15.14;73.01
52032;BME280;38044;45.148;39.604;2023-04-03T11:41:10;100925.09;;;15.31;71.52
52032;BME280;38044;45.148;39.604;2023-04-03T11:46:52;100932.66;;;15.51;71.51
52032;BME280;38044;45.148;39.604;2023-04-03T11:58:03;100937.03;;;15.30;70.00
52032;BME280;38044;45.148;39.604;2023-04-03T12:05:52;100925.75;;;14.97;70.85
52032;BME280;38044;45.148;39.604;2023-04-03T12:08:28;100932.66;;;15.12;71.68
52032;BME280;38044;45.148;39.604;2023-04-03T12:16:25;100943.00;;;15.09;71.53
52032;BME280;38044;45.148;39.604;2023-04-03T12:29:27;100933.22;;;14.91;71.13
52032;BME280;38044;45.148;39.604;2023-04-03T12:42:54;100902.47;;;15.36;68.60
52032;BME280;38044;45.148;39.604;2023-04-03T12:45:25;100791.09;;;14.62;68.51
52032;BME280;38044;45.148;39.604;2023-04-03T12:47:54;100912.22;;;15.45;67.48
52032;BME280;38044;45.148;39.604;2023-04-03T12:50:22;100956.06;;;15.56;67.23
52032;BME280;38044;45.148;39.604;2023-04-03T12:55:43;100784.72;;;14.36;67.68
52032;BME280;38044;45.148;39.604;2023-04-03T12:58:19;100948.41;;;15.49;68.25
52032;BME280;38044;45.148;39.604;2023-04-03T13:00:46;100913.28;;;15.27;68.31
52032;BME280;38044;45.148;39.604;2023-04-03T13:03:25;100824.59;;;14.84;68.08
52032;BME280;38044;45.148;39.604;2023-04-03T13:05:56;100929.16;;;15.60;67.24
52032;BME280;38044;45.148;39.604;2023-04-03T13:08:23;100946.41;;;15.72;66.94
52032;BME280;38044;45.148;39.604;2023-04-03T13:10:59;100831.19;;;15.00;67.75
52032;BME280;38044;45.148;39.604;2023-04-03T13:13:27;100939.66;;;15.52;65.81
52032;BME280;38044;45.148;39.604;2023-04-03T13:15:53;100819.59;;;14.69;65.79
52032;BME280;38044;45.148;39.604;2023-04-03T13:18:40;100960.56;;;15.61;66.70
52032;BME280;38044;45.148;39.604;2023-04-03T13:21:15;100925.25;;;15.35;66.12
52032;BME280;38044;45.148;39.604;2023-04-03T13:23:46;100963.84;;;15.40;66.16
52032;BME280;38044;45.148;39.604;2023-04-03T13:26:16;100961.44;;;15.39;66.73
52032;BME280;38044;45.148;39.604;2023-04-03T13:28:43;100972.91;;;15.36;67.82
52032;BME280;38044;45.148;39.604;2023-04-03T13:33:53;100974.88;;;15.52;67.50
52032;BME280;38044;45.148;39.604;2023-04-03T13:36:22;100837.59;;;14.73;67.69
52032;BME280;38044;45.148;39.604;2023-04-03T13:39:21;100958.31;;;15.54;67.67
52032;BME280;38044;45.148;39.604;2023-04-03T13:41:51;100963.09;;;15.57;66.69
52032;BME280;38044;45.148;39.604;2023-04-03T13:44:29;100932.88;;;15.24;66.97
52032;BME280;38044;45.148;39.604;2023-04-03T13:46:58;100964.31;;;15.42;67.81
52032;BME280;38044;45.148;39.604;2023-04-03T13:49:36;100966.69;;;15.35;67.68
52032;BME280;38044;45.148;39.604;2023-04-03T13:52:26;100946.44;;;15.32;67.73
52032;BME280;38044;45.148;39.604;2023-04-03T13:54:59;100942.09;;;15.23;68.29
52032;BME280;38044;45.148;39.604;2023-04-03T13:57:25;100952.16;;;15.22;67.27
52032;BME280;38044;45.148;39.604;2023-04-03T13:59:51;100972.72;;;15.32;67.16
52032;BME280;38044;45.148;39.604;2023-04-03T14:02:29;100978.97;;;15.41;66.14
52032;BME280;38044;45.148;39.604;2023-04-03T14:04:58;100974.94;;;15.30;66.29
52032;BME280;38044;45.148;39.604;2023-04-03T14:07:27;100886.75;;;14.67;66.19
52032;BME280;38044;45.148;39.604;2023-04-03T14:09:53;100975.22;;;15.20;66.87
52032;BME280;38044;45.148;39.604;2023-04-03T14:12:27;100953.50;;;15.02;67.52
52032;BME280;38044;45.148;39.604;2023-04-03T14:14:55;100962.53;;;14.98;67.47
52032;BME280;38044;45.148;39.604;2023-04-03T14:17:24;100961.38;;;14.90;67.24
52032;BME280;38044;45.148;39.604;2023-04-03T14:19:53;100942.44;;;14.68;66.78
52032;BME280;38044;45.148;39.604;2023-04-03T14:22:29;100985.06;;;14.84;67.35
52032;BME280;38044;45.148;39.604;2023-04-03T14:24:56;100959.78;;;14.67;67.61
52032;BME280;38044;45.148;39.604;2023-04-03T14:27:49;100984.00;;;14.94;67.46
52032;BME280;38044;45.148;39.604;2023-04-03T14:30:19;100970.56;;;14.80;67.24
52032;BME280;38044;45.148;39.604;2023-04-03T14:32:47;100969.50;;;14.68;67.97